sensor_id;sensor_type;location;lat;lon;timestamp;temperature;humidity
38265;DHT22;24062;47.480;8.768;2023-04-25T00:02:19;8.40;74.50
38265;DHT22;24062;47.480;8.768;2023-04-25T00:04:47;8.30;75.20
38265;DHT22;24062;47.480;8.768;2023-04-25T00:07:15;8.40;75.60
38265;DHT22;24062;47.480;8.768;2023-04-25T00:09:44;8.30;74.60
38265;DHT22;24062;47.480;8.768;2023-04-25T00:12:11;8.20;74.90
38265;DHT22;24062;47.480;8.768;2023-04-25T00:14:38;8.20;75.00
38265;DHT22;24062;47.480;8.768;2023-04-25T00:17:05;8.20;75.20
38265;DHT22;24062;47.480;8.768;2023-04-25T00:19:32;8.30;75.30
38265;DHT22;24062;47.480;8.768;2023-04-25T00:22:00;8.20;75.10
38265;DHT22;24062;47.480;8.768;2023-04-25T00:24:27;8.30;75.40
38265;DHT22;24062;47.480;8.768;2023-04-25T00:26:55;8.30;75.30
38265;DHT22;24062;47.480;8.768;2023-04-25T00:29:22;8.30;75.20
38265;DHT22;24062;47.480;8.768;2023-04-25T00:31:49;8.20;75.20
38265;DHT22;24062;47.480;8.768;2023-04-25T00:34:16;8.20;75.40
38265;DHT22;24062;47.480;8.768;2023-04-25T00:36:43;8.20;75.20
38265;DHT22;24062;47.480;8.768;2023-04-25T00:39:10;8.20;75.40
38265;DHT22;24062;47.480;8.768;2023-04-25T00:41:38;8.10;74.90
38265;DHT22;24062;47.480;8.768;2023-04-25T00:44:08;8.00;74.90
38265;DHT22;24062;47.480;8.768;2023-04-25T00:46:37;7.80;74.80
38265;DHT22;24062;47.480;8.768;2023-04-25T00:49:05;7.70;74.90
38265;DHT22;24062;47.480;8.768;2023-04-25T00:51:32;7.60;74.90
38265;DHT22;24062;47.480;8.768;2023-04-25T00:53:59;7.50;75.00
38265;DHT22;24062;47.480;8.768;2023-04-25T00:56:27;7.50;75.30
38265;DHT22;24062;47.480;8.768;2023-04-25T00:58:54;7.40;75.50
38265;DHT22;24062;47.480;8.768;2023-04-25T01:01:23;7.40;75.90
38265;DHT22;24062;47.480;8.768;2023-04-25T01:03:50;7.20;75.60
38265;DHT22;24062;47.480;8.768;2023-04-25T01:06:18;7.20;75.70
38265;DHT22;24062;47.480;8.768;2023-04-25T01:08:45;7.20;76.10
38265;DHT22;24062;47.480;8.768;2023-04-25T01:11:12;7.20;76.10
38265;DHT22;24062;47.480;8.768;2023-04-25T01:13:39;7.10;75.90
38265;DHT22;24062;47.480;8.768;2023-04-25T01:16:06;7.10;76.40
38265;DHT22;24062;47.480;8.768;2023-04-25T01:18:34;7.10;76.30
38265;DHT22;24062;47.480;8.768;2023-04-25T01:21:07;7.00;76.30
38265;DHT22;24062;47.480;8.768;2023-04-25T01:23:35;7.00;76.60
38265;DHT22;24062;47.480;8.768;2023-04-25T01:26:02;6.90;76.30
38265;DHT22;24062;47.480;8.768;2023-04-25T01:28:29;6.90;76.60
38265;DHT22;24062;47.480;8.768;2023-04-25T01:30:57;6.90;76.90
38265;DHT22;24062;47.480;8.768;2023-04-25T01:33:24;7.00;76.50
38265;DHT22;24062;47.480;8.768;2023-04-25T01:35:51;7.10;76.20
38265;DHT22;24062;47.480;8.768;2023-04-25T01:38:19;7.10;76.20
38265;DHT22;24062;47.480;8.768;2023-04-25T01:40:46;7.10;76.20
38265;DHT22;24062;47.480;8.768;2023-04-25T01:43:15;7.20;76.20
38265;DHT22;24062;47.480;8.768;2023-04-25T01:45:42;7.10;76.20
38265;DHT22;24062;47.480;8.768;2023-04-25T01:48:09;7.10;76.40
38265;DHT22;24062;47.480;8.768;2023-04-25T01:50:37;7.10;76.60
38265;DHT22;24062;47.480;8.768;2023-04-25T01:53:05;7.00;76.50
38265;DHT22;24062;47.480;8.768;2023-04-25T01:55:33;7.10;76.80
38265;DHT22;24062;47.480;8.768;2023-04-25T01:58:01;7.10;76.70
38265;DHT22;24062;47.480;8.768;2023-04-25T02:00:29;7.10;76.70
38265;DHT22;24062;47.480;8.768;2023-04-25T02:02:58;7.10;76.50
38265;DHT22;24062;47.480;8.768;2023-04-25T02:05:25;7.10;76.60
38265;DHT22;24062;47.480;8.768;2023-04-25T02:07:52;7.10;76.70
38265;DHT22;24062;47.480;8.768;2023-04-25T02:10:19;7.00;76.70
38265;DHT22;24062;47.480;8.768;2023-04-25T02:12:47;6.80;76.50
38265;DHT22;24062;47.480;8.768;2023-04-25T02:15:14;6.70;76.70
38265;DHT22;24062;47.480;8.768;2023-04-25T02:17:41;6.70;76.90
38265;DHT22;24062;47.480;8.768;2023-04-25T02:20:09;6.60;76.80
38265;DHT22;24062;47.480;8.768;2023-04-25T02:22:36;6.50;76.80
38265;DHT22;24062;47.480;8.768;2023-04-25T02:25:03;6.40;76.90
38265;DHT22;24062;47.480;8.768;2023-04-25T02:27:30;6.30;77.10
38265;DHT22;24062;47.480;8.768;2023-04-25T02:29:59;6.20;77.90
38265;DHT22;24062;47.480;8.768;2023-04-25T02:32:26;6.10;78.20
38265;DHT22;24062;47.480;8.768;2023-04-25T02:34:53;6.00;78.60
38265;DHT22;24062;47.480;8.768;2023-04-25T02:37:20;6.00;78.70
38265;DHT22;24062;47.480;8.768;2023-04-25T02:39:47;6.00;78.50
38265;DHT22;24062;47.480;8.768;2023-04-25T02:42:14;6.00;78.50
38265;DHT22;24062;47.480;8.768;2023-04-25T02:44:41;6.00;78.60
38265;DHT22;24062;47.480;8.768;2023-04-25T02:47:09;6.00;78.70
38265;DHT22;24062;47.480;8.768;2023-04-25T02:49:36;6.00;78.80
38265;DHT22;24062;47.480;8.768;2023-04-25T02:52:03;6.10;78.80
38265;DHT22;24062;47.480;8.768;2023-04-25T02:54:30;6.10;78.60
38265;DHT22;24062;47.480;8.768;2023-04-25T02:56:57;6.10;78.40
38265;DHT22;24062;47.480;8.768;2023-04-25T02:59:24;5.90;78.30
38265;DHT22;24062;47.480;8.768;2023-04-25T03:01:51;5.80;78.50
38265;DHT22;24062;47.480;8.768;2023-04-25T03:04:19;5.70;78.80
38265;DHT22;24062;47.480;8.768;2023-04-25T03:06:46;5.80;79.00
38265;DHT22;24062;47.480;8.768;2023-04-25T03:09:13;5.80;79.10
38265;DHT22;24062;47.480;8.768;2023-04-25T03:11:40;5.80;79.20
38265;DHT22;24062;47.480;8.768;2023-04-25T03:14:07;5.80;79.40
38265;DHT22;24062;47.480;8.768;2023-04-25T03:16:34;5.80;79.50
38265;DHT22;24062;47.480;8.768;2023-04-25T03:19:01;5.80;79.50
38265;DHT22;24062;47.480;8.768;2023-04-25T03:21:30;5.80;79.40
38265;DHT22;24062;47.480;8.768;2023-04-25T03:23:57;5.80;79.40
38265;DHT22;24062;47.480;8.768;2023-04-25T03:26:24;5.70;79.10
38265;DHT22;24062;47.480;8.768;2023-04-25T03:28:51;5.60;79.10
38265;DHT22;24062;47.480;8.768;2023-04-25T03:31:18;5.60;79.10
38265;DHT22;24062;47.480;8.768;2023-04-25T03:33:45;5.50;79.30
38265;DHT22;24062;47.480;8.768;2023-04-25T03:36:12;5.40;79.30
38265;DHT22;24062;47.480;8.768;2023-04-25T03:38:40;5.40;79.50
38265;DHT22;24062;47.480;8.768;2023-04-25T03:41:08;5.40;79.50
38265;DHT22;24062;47.480;8.768;2023-04-25T03:43:35;5.30;79.50
38265;DHT22;24062;47.480;8.768;2023-04-25T03:46:02;5.20;79.50
38265;DHT22;24062;47.480;8.768;2023-04-25T03:48:29;5.30;79.90
38265;DHT22;24062;47.480;8.768;2023-04-25T03:50:55;5.20;79.80
38265;DHT22;24062;47.480;8.768;2023-04-25T03:53:22;5.10;79.80
38265;DHT22;24062;47.480;8.768;2023-04-25T03:55:51;5.00;80.00
38265;DHT22;24062;47.480;8.768;2023-04-25T03:58:18;5.00;80.40
38265;DHT22;24062;47.480;8.768;2023-04-25T04:00:45;4.90;80.80
38265;DHT22;24062;47.480;8.768;2023-04-25T04:03:12;4.90;81.10
38265;DHT22;24062;47.480;8.768;2023-04-25T04:05:39;4.80;82.00
38265;DHT22;24062;47.480;8.768;2023-04-25T04:08:06;4.80;81.30
38265;DHT22;24062;47.480;8.768;2023-04-25T04:10:33;4.80;81.80
38265;DHT22;24062;47.480;8.768;2023-04-25T04:13:02;4.80;82.00
38265;DHT22;24062;47.480;8.768;2023-04-25T04:15:29;4.80;82.10
38265;DHT22;24062;47.480;8.768;2023-04-25T04:17:58;4.80;82.50
38265;DHT22;24062;47.480;8.768;2023-04-25T04:20:28;4.90;82.70
38265;DHT22;24062;47.480;8.768;2023-04-25T04:22:55;4.80;82.90
38265;DHT22;24062;47.480;8.768;2023-04-25T04:25:22;4.90;83.30
38265;DHT22;24062;47.480;8.768;2023-04-25T04:27:50;5.00;83.20
38265;DHT22;24062;47.480;8.768;2023-04-25T04:30:21;5.10;83.20
38265;DHT22;24062;47.480;8.768;2023-04-25T04:32:49;5.10;83.10
38265;DHT22;24062;47.480;8.768;2023-04-25T04:35:16;5.20;83.00
38265;DHT22;24062;47.480;8.768;2023-04-25T04:37:43;5.30;83.00
38265;DHT22;24062;47.480;8.768;2023-04-25T04:40:11;5.30;83.10
38265;DHT22;24062;47.480;8.768;2023-04-25T04:42:41;5.30;83.00
38265;DHT22;24062;47.480;8.768;2023-04-25T04:45:08;5.30;83.00
38265;DHT22;24062;47.480;8.768;2023-04-25T04:47:38;5.30;83.00
38265;DHT22;24062;47.480;8.768;2023-04-25T04:50:06;5.30;83.00
38265;DHT22;24062;47.480;8.768;2023-04-25T04:52:34;5.40;83.20
38265;DHT22;24062;47.480;8.768;2023-04-25T04:55:01;5.40;83.30
38265;DHT22;24062;47.480;8.768;2023-04-25T04:57:28;5.40;83.50
38265;DHT22;24062;47.480;8.768;2023-04-25T04:59:56;5.50;83.60
38265;DHT22;24062;47.480;8.768;2023-04-25T05:02:23;5.50;83.90
38265;DHT22;24062;47.480;8.768;2023-04-25T05:04:52;5.50;83.80
38265;DHT22;24062;47.480;8.768;2023-04-25T05:07:19;5.60;84.10
38265;DHT22;24062;47.480;8.768;2023-04-25T05:09:46;5.60;84.30
38265;DHT22;24062;47.480;8.768;2023-04-25T05:12:13;5.70;84.60
38265;DHT22;24062;47.480;8.768;2023-04-25T05:14:40;5.80;84.80
38265;DHT22;24062;47.480;8.768;2023-04-25T05:17:07;5.90;84.90
38265;DHT22;24062;47.480;8.768;2023-04-25T05:19:34;6.00;84.90
38265;DHT22;24062;47.480;8.768;2023-04-25T05:22:03;6.10;85.10
38265;DHT22;24062;47.480;8.768;2023-04-25T05:24:30;6.10;85.20
38265;DHT22;24062;47.480;8.768;2023-04-25T05:26:57;6.20;85.30
38265;DHT22;24062;47.480;8.768;2023-04-25T05:29:24;6.30;85.50
38265;DHT22;24062;47.480;8.768;2023-04-25T05:31:51;6.40;85.60
38265;DHT22;24062;47.480;8.768;2023-04-25T05:34:18;6.50;85.80
38265;DHT22;24062;47.480;8.768;2023-04-25T05:36:45;6.60;86.20
38265;DHT22;24062;47.480;8.768;2023-04-25T05:39:15;6.80;86.30
38265;DHT22;24062;47.480;8.768;2023-04-25T05:41:42;6.90;86.40
38265;DHT22;24062;47.480;8.768;2023-04-25T05:44:09;7.00;86.60
38265;DHT22;24062;47.480;8.768;2023-04-25T05:46:36;7.20;86.70
38265;DHT22;24062;47.480;8.768;2023-04-25T05:49:03;7.40;86.50
38265;DHT22;24062;47.480;8.768;2023-04-25T05:51:30;7.60;86.70
38265;DHT22;24062;47.480;8.768;2023-04-25T05:53:58;7.80;86.60
38265;DHT22;24062;47.480;8.768;2023-04-25T05:56:26;8.00;86.20
38265;DHT22;24062;47.480;8.768;2023-04-25T05:58:53;8.10;85.20
38265;DHT22;24062;47.480;8.768;2023-04-25T06:01:21;8.20;85.60
38265;DHT22;24062;47.480;8.768;2023-04-25T06:03:48;8.20;85.20
38265;DHT22;24062;47.480;8.768;2023-04-25T06:06:17;8.40;86.60
38265;DHT22;24062;47.480;8.768;2023-04-25T06:08:44;8.60;86.20
38265;DHT22;24062;47.480;8.768;2023-04-25T06:11:11;8.80;87.00
38265;DHT22;24062;47.480;8.768;2023-04-25T06:13:39;9.00;85.30
38265;DHT22;24062;47.480;8.768;2023-04-25T06:16:06;9.10;84.90
38265;DHT22;24062;47.480;8.768;2023-04-25T06:18:33;9.20;83.80
38265;DHT22;24062;47.480;8.768;2023-04-25T06:21:00;9.20;81.10
38265;DHT22;24062;47.480;8.768;2023-04-25T06:23:28;9.10;80.70
38265;DHT22;24062;47.480;8.768;2023-04-25T06:25:55;9.10;82.00
38265;DHT22;24062;47.480;8.768;2023-04-25T06:28:21;9.10;82.10
38265;DHT22;24062;47.480;8.768;2023-04-25T06:30:51;9.20;79.90
38265;DHT22;24062;47.480;8.768;2023-04-25T06:33:18;9.10;81.00
38265;DHT22;24062;47.480;8.768;2023-04-25T06:35:45;9.10;80.90
38265;DHT22;24062;47.480;8.768;2023-04-25T06:38:12;9.20;79.80
38265;DHT22;24062;47.480;8.768;2023-04-25T06:40:39;9.10;78.20
38265;DHT22;24062;47.480;8.768;2023-04-25T06:43:06;8.90;77.70
38265;DHT22;24062;47.480;8.768;2023-04-25T06:45:33;8.90;78.30
38265;DHT22;24062;47.480;8.768;2023-04-25T06:48:01;8.80;78.10
38265;DHT22;24062;47.480;8.768;2023-04-25T06:50:28;8.60;78.20
38265;DHT22;24062;47.480;8.768;2023-04-25T06:52:55;8.30;78.60
38265;DHT22;24062;47.480;8.768;2023-04-25T06:55:22;8.00;79.70
38265;DHT22;24062;47.480;8.768;2023-04-25T06:57:49;7.60;80.40
38265;DHT22;24062;47.480;8.768;2023-04-25T07:00:16;7.40;81.30
38265;DHT22;24062;47.480;8.768;2023-04-25T07:02:43;7.40;82.80
38265;DHT22;24062;47.480;8.768;2023-04-25T07:05:12;7.30;83.10
38265;DHT22;24062;47.480;8.768;2023-04-25T07:07:39;7.40;84.70
38265;DHT22;24062;47.480;8.768;2023-04-25T07:10:06;7.40;84.70
38265;DHT22;24062;47.480;8.768;2023-04-25T07:12:33;7.40;84.50
38265;DHT22;24062;47.480;8.768;2023-04-25T07:15:00;7.40;86.20
38265;DHT22;24062;47.480;8.768;2023-04-25T07:17:32;7.50;85.90
38265;DHT22;24062;47.480;8.768;2023-04-25T07:19:59;7.60;86.90
38265;DHT22;24062;47.480;8.768;2023-04-25T07:22:27;7.70;86.70
38265;DHT22;24062;47.480;8.768;2023-04-25T07:24:54;7.80;86.70
38265;DHT22;24062;47.480;8.768;2023-04-25T07:27:21;7.80;85.90
38265;DHT22;24062;47.480;8.768;2023-04-25T07:29:48;7.60;86.10
38265;DHT22;24062;47.480;8.768;2023-04-25T07:32:15;7.50;87.30
38265;DHT22;24062;47.480;8.768;2023-04-25T07:34:42;7.40;87.90
38265;DHT22;24062;47.480;8.768;2023-04-25T07:37:09;7.50;87.80
38265;DHT22;24062;47.480;8.768;2023-04-25T07:39:37;7.40;88.30
38265;DHT22;24062;47.480;8.768;2023-04-25T07:42:05;7.50;88.20
38265;DHT22;24062;47.480;8.768;2023-04-25T07:44:33;7.50;88.00
38265;DHT22;24062;47.480;8.768;2023-04-25T07:47:04;7.50;88.50
38265;DHT22;24062;47.480;8.768;2023-04-25T07:49:32;7.50;88.20
38265;DHT22;24062;47.480;8.768;2023-04-25T07:52:00;7.50;87.90
38265;DHT22;24062;47.480;8.768;2023-04-25T07:54:27;7.50;88.20
38265;DHT22;24062;47.480;8.768;2023-04-25T07:56:56;7.50;89.30
38265;DHT22;24062;47.480;8.768;2023-04-25T07:59:23;7.60;88.70
38265;DHT22;24062;47.480;8.768;2023-04-25T08:01:50;7.70;89.50
38265;DHT22;24062;47.480;8.768;2023-04-25T08:04:16;7.90;89.10
38265;DHT22;24062;47.480;8.768;2023-04-25T08:06:43;8.00;90.00
38265;DHT22;24062;47.480;8.768;2023-04-25T08:09:11;8.30;89.10
38265;DHT22;24062;47.480;8.768;2023-04-25T08:11:38;8.40;88.60
38265;DHT22;24062;47.480;8.768;2023-04-25T08:14:06;8.50;88.50
38265;DHT22;24062;47.480;8.768;2023-04-25T08:16:33;8.80;89.50
38265;DHT22;24062;47.480;8.768;2023-04-25T08:19:00;8.90;86.90
38265;DHT22;24062;47.480;8.768;2023-04-25T08:21:27;8.80;85.90
38265;DHT22;24062;47.480;8.768;2023-04-25T08:23:54;8.70;86.80
38265;DHT22;24062;47.480;8.768;2023-04-25T08:26:22;8.60;86.40
38265;DHT22;24062;47.480;8.768;2023-04-25T08:28:49;8.60;87.30
38265;DHT22;24062;47.480;8.768;2023-04-25T08:31:17;8.60;88.30
38265;DHT22;24062;47.480;8.768;2023-04-25T08:33:44;8.50;86.70
38265;DHT22;24062;47.480;8.768;2023-04-25T08:36:11;8.40;87.70
38265;DHT22;24062;47.480;8.768;2023-04-25T08:38:38;8.40;87.90
38265;DHT22;24062;47.480;8.768;2023-04-25T08:41:05;8.40;88.00
38265;DHT22;24062;47.480;8.768;2023-04-25T08:43:33;8.50;88.10
38265;DHT22;24062;47.480;8.768;2023-04-25T08:46:01;8.60;88.60
38265;DHT22;24062;47.480;8.768;2023-04-25T08:48:32;8.70;88.50
38265;DHT22;24062;47.480;8.768;2023-04-25T08:51:01;8.60;87.10
38265;DHT22;24062;47.480;8.768;2023-04-25T08:53:32;8.60;86.10
38265;DHT22;24062;47.480;8.768;2023-04-25T08:56:00;8.50;87.60
38265;DHT22;24062;47.480;8.768;2023-04-25T08:58:28;8.70;88.30
38265;DHT22;24062;47.480;8.768;2023-04-25T09:00:55;8.80;87.70
38265;DHT22;24062;47.480;8.768;2023-04-25T09:03:22;8.80;87.70
38265;DHT22;24062;47.480;8.768;2023-04-25T09:05:51;8.90;88.90
38265;DHT22;24062;47.480;8.768;2023-04-25T09:08:18;8.90;88.30
38265;DHT22;24062;47.480;8.768;2023-04-25T09:10:45;8.80;86.80
38265;DHT22;24062;47.480;8.768;2023-04-25T09:13:13;8.80;86.50
38265;DHT22;24062;47.480;8.768;2023-04-25T09:15:50;8.60;86.50
38265;DHT22;24062;47.480;8.768;2023-04-25T09:18:24;8.50;86.50
38265;DHT22;24062;47.480;8.768;2023-04-25T09:20:54;8.60;87.00
38265;DHT22;24062;47.480;8.768;2023-04-25T09:23:22;8.50;87.00
38265;DHT22;24062;47.480;8.768;2023-04-25T09:25:50;8.50;87.20
38265;DHT22;24062;47.480;8.768;2023-04-25T09:28:23;8.50;87.70
38265;DHT22;24062;47.480;8.768;2023-04-25T09:30:54;8.60;87.10
38265;DHT22;24062;47.480;8.768;2023-04-25T09:33:27;8.60;86.30
38265;DHT22;24062;47.480;8.768;2023-04-25T09:36:01;8.70;86.80
38265;DHT22;24062;47.480;8.768;2023-04-25T09:38:30;9.10;87.60
38265;DHT22;24062;47.480;8.768;2023-04-25T09:40:57;9.50;88.10
38265;DHT22;24062;47.480;8.768;2023-04-25T09:43:25;9.90;87.40
38265;DHT22;24062;47.480;8.768;2023-04-25T09:45:54;10.00;85.90
38265;DHT22;24062;47.480;8.768;2023-04-25T09:48:24;10.00;84.60
38265;DHT22;24062;47.480;8.768;2023-04-25T09:51:06;10.10;84.70
38265;DHT22;24062;47.480;8.768;2023-04-25T09:53:33;10.20;83.90
38265;DHT22;24062;47.480;8.768;2023-04-25T09:56:03;10.30;80.90
38265;DHT22;24062;47.480;8.768;2023-04-25T09:58:32;10.30;82.60
38265;DHT22;24062;47.480;8.768;2023-04-25T10:01:00;10.30;81.60
38265;DHT22;24062;47.480;8.768;2023-04-25T10:03:30;10.30;80.40
38265;DHT22;24062;47.480;8.768;2023-04-25T10:05:59;10.30;78.40
38265;DHT22;24062;47.480;8.768;2023-04-25T10:08:33;10.20;78.70
38265;DHT22;24062;47.480;8.768;2023-04-25T10:11:02;10.30;80.10
38265;DHT22;24062;47.480;8.768;2023-04-25T10:13:30;10.40;79.60
38265;DHT22;24062;47.480;8.768;2023-04-25T10:15:57;10.60;79.10
38265;DHT22;24062;47.480;8.768;2023-04-25T10:18:25;10.70;78.60
38265;DHT22;24062;47.480;8.768;2023-04-25T10:20:54;10.90;79.70
38265;DHT22;24062;47.480;8.768;2023-04-25T10:23:22;11.20;79.30
38265;DHT22;24062;47.480;8.768;2023-04-25T10:25:51;11.40;78.60
38265;DHT22;24062;47.480;8.768;2023-04-25T10:28:19;11.30;76.70
38265;DHT22;24062;47.480;8.768;2023-04-25T10:30:59;11.10;76.20
38265;DHT22;24062;47.480;8.768;2023-04-25T10:33:32;10.90;74.70
38265;DHT22;24062;47.480;8.768;2023-04-25T10:36:12;10.60;74.40
38265;DHT22;24062;47.480;8.768;2023-04-25T10:38:40;10.50;75.80
38265;DHT22;24062;47.480;8.768;2023-04-25T10:41:11;10.80;76.00
38265;DHT22;24062;47.480;8.768;2023-04-25T10:43:39;10.90;75.00
38265;DHT22;24062;47.480;8.768;2023-04-25T10:46:17;11.20;75.70
38265;DHT22;24062;47.480;8.768;2023-04-25T10:48:46;11.40;74.90
38265;DHT22;24062;47.480;8.768;2023-04-25T10:51:22;11.50;73.00
38265;DHT22;24062;47.480;8.768;2023-04-25T10:54:00;11.70;71.90
38265;DHT22;24062;47.480;8.768;2023-04-25T10:56:30;11.70;71.80
38265;DHT22;24062;47.480;8.768;2023-04-25T10:59:05;12.10;73.20
38265;DHT22;24062;47.480;8.768;2023-04-25T11:01:36;12.50;71.40
38265;DHT22;24062;47.480;8.768;2023-04-25T11:04:04;12.90;71.10
38265;DHT22;24062;47.480;8.768;2023-04-25T11:06:40;13.10;70.20
38265;DHT22;24062;47.480;8.768;2023-04-25T11:09:11;13.20;67.20
38265;DHT22;24062;47.480;8.768;2023-04-25T11:11:41;13.40;67.40
38265;DHT22;24062;47.480;8.768;2023-04-25T11:14:08;13.50;66.10
38265;DHT22;24062;47.480;8.768;2023-04-25T11:16:34;13.60;67.20
38265;DHT22;24062;47.480;8.768;2023-04-25T11:19:01;13.70;65.00
38265;DHT22;24062;47.480;8.768;2023-04-25T11:21:30;13.50;63.10
38265;DHT22;24062;47.480;8.768;2023-04-25T11:23:57;13.10;62.50
38265;DHT22;24062;47.480;8.768;2023-04-25T11:26:25;13.00;63.20
38265;DHT22;24062;47.480;8.768;2023-04-25T11:28:57;13.10;64.70
38265;DHT22;24062;47.480;8.768;2023-04-25T11:31:25;13.70;65.80
38265;DHT22;24062;47.480;8.768;2023-04-25T11:33:53;14.00;63.50
38265;DHT22;24062;47.480;8.768;2023-04-25T11:36:22;14.40;63.40
38265;DHT22;24062;47.480;8.768;2023-04-25T11:38:50;14.60;62.70
38265;DHT22;24062;47.480;8.768;2023-04-25T11:41:17;14.80;62.20
38265;DHT22;24062;47.480;8.768;2023-04-25T11:43:44;14.60;61.20
38265;DHT22;24062;47.480;8.768;2023-04-25T11:46:12;14.40;60.60
38265;DHT22;24062;47.480;8.768;2023-04-25T11:48:39;14.10;59.60
38265;DHT22;24062;47.480;8.768;2023-04-25T11:51:06;13.80;58.70
38265;DHT22;24062;47.480;8.768;2023-04-25T11:53:33;13.50;60.40
38265;DHT22;24062;47.480;8.768;2023-04-25T11:56:01;13.40;60.20
38265;DHT22;24062;47.480;8.768;2023-04-25T11:58:28;13.40;60.20
38265;DHT22;24062;47.480;8.768;2023-04-25T12:00:56;13.30;59.50
38265;DHT22;24062;47.480;8.768;2023-04-25T12:03:26;13.30;60.10
38265;DHT22;24062;47.480;8.768;2023-04-25T12:06:02;13.40;60.50
38265;DHT22;24062;47.480;8.768;2023-04-25T12:08:30;13.80;59.40
38265;DHT22;24062;47.480;8.768;2023-04-25T12:10:58;13.80;58.00
38265;DHT22;24062;47.480;8.768;2023-04-25T12:13:26;13.80;58.30
38265;DHT22;24062;47.480;8.768;2023-04-25T12:15:54;13.80;57.20
38265;DHT22;24062;47.480;8.768;2023-04-25T12:18:24;13.50;57.00
38265;DHT22;24062;47.480;8.768;2023-04-25T12:20:54;13.40;57.30
38265;DHT22;24062;47.480;8.768;2023-04-25T12:23:25;13.30;56.90
38265;DHT22;24062;47.480;8.768;2023-04-25T12:25:53;13.00;56.50
38265;DHT22;24062;47.480;8.768;2023-04-25T12:28:22;13.00;56.80
38265;DHT22;24062;47.480;8.768;2023-04-25T12:30:54;13.00;57.50
38265;DHT22;24062;47.480;8.768;2023-04-25T12:33:21;13.20;57.10
38265;DHT22;24062;47.480;8.768;2023-04-25T12:35:48;13.10;55.50
38265;DHT22;24062;47.480;8.768;2023-04-25T12:38:22;12.80;55.60
38265;DHT22;24062;47.480;8.768;2023-04-25T12:40:50;12.30;56.80
38265;DHT22;24062;47.480;8.768;2023-04-25T12:43:17;12.10;57.40
38265;DHT22;24062;47.480;8.768;2023-04-25T12:45:44;12.10;57.50
38265;DHT22;24062;47.480;8.768;2023-04-25T12:48:11;12.10;57.40
38265;DHT22;24062;47.480;8.768;2023-04-25T12:50:38;12.20;58.20
38265;DHT22;24062;47.480;8.768;2023-04-25T12:53:05;12.40;58.30
38265;DHT22;24062;47.480;8.768;2023-04-25T12:55:33;12.60;57.60
38265;DHT22;24062;47.480;8.768;2023-04-25T12:58:00;12.80;58.70
38265;DHT22;24062;47.480;8.768;2023-04-25T13:00:28;13.30;58.70
38265;DHT22;24062;47.480;8.768;2023-04-25T13:02:56;13.60;58.00
38265;DHT22;24062;47.480;8.768;2023-04-25T13:05:23;13.90;57.50
38265;DHT22;24062;47.480;8.768;2023-04-25T13:07:50;14.40;58.40
38265;DHT22;24062;47.480;8.768;2023-04-25T13:10:17;15.10;56.50
38265;DHT22;24062;47.480;8.768;2023-04-25T13:12:45;15.60;56.50
38265;DHT22;24062;47.480;8.768;2023-04-25T13:15:12;15.90;55.00
38265;DHT22;24062;47.480;8.768;2023-04-25T13:17:41;16.00;54.00
38265;DHT22;24062;47.480;8.768;2023-04-25T13:20:09;15.80;54.20
38265;DHT22;24062;47.480;8.768;2023-04-25T13:22:37;15.50;53.10
38265;DHT22;24062;47.480;8.768;2023-04-25T13:25:06;15.30;53.80
38265;DHT22;24062;47.480;8.768;2023-04-25T13:27:34;15.00;53.70
38265;DHT22;24062;47.480;8.768;2023-04-25T13:30:04;14.70;54.70
38265;DHT22;24062;47.480;8.768;2023-04-25T13:32:33;14.60;53.70
38265;DHT22;24062;47.480;8.768;2023-04-25T13:35:02;14.40;54.40
38265;DHT22;24062;47.480;8.768;2023-04-25T13:37:30;14.30;53.90
38265;DHT22;24062;47.480;8.768;2023-04-25T13:39:59;14.10;54.30
38265;DHT22;24062;47.480;8.768;2023-04-25T13:42:27;13.80;54.00
38265;DHT22;24062;47.480;8.768;2023-04-25T13:44:55;13.60;56.30
38265;DHT22;24062;47.480;8.768;2023-04-25T13:47:26;13.30;55.90
38265;DHT22;24062;47.480;8.768;2023-04-25T13:49:53;12.90;56.50
38265;DHT22;24062;47.480;8.768;2023-04-25T13:52:21;12.80;57.10
38265;DHT22;24062;47.480;8.768;2023-04-25T13:54:49;12.70;57.50
38265;DHT22;24062;47.480;8.768;2023-04-25T13:57:17;12.70;56.90
38265;DHT22;24062;47.480;8.768;2023-04-25T13:59:44;12.80;57.40
38265;DHT22;24062;47.480;8.768;2023-04-25T14:02:12;12.90;58.00
38265;DHT22;24062;47.480;8.768;2023-04-25T14:04:40;13.10;59.10
38265;DHT22;24062;47.480;8.768;2023-04-25T14:07:07;13.70;60.40
38265;DHT22;24062;47.480;8.768;2023-04-25T14:09:34;14.10;58.90
38265;DHT22;24062;47.480;8.768;2023-04-25T14:12:01;14.30;58.50
38265;DHT22;24062;47.480;8.768;2023-04-25T14:14:28;14.70;59.10
38265;DHT22;24062;47.480;8.768;2023-04-25T14:16:55;14.50;57.20
38265;DHT22;24062;47.480;8.768;2023-04-25T14:19:22;14.30;57.50
38265;DHT22;24062;47.480;8.768;2023-04-25T14:21:51;14.10;55.60
38265;DHT22;24062;47.480;8.768;2023-04-25T14:24:18;13.70;56.30
38265;DHT22;24062;47.480;8.768;2023-04-25T14:26:45;13.90;57.30
38265;DHT22;24062;47.480;8.768;2023-04-25T14:29:12;14.50;57.50
38265;DHT22;24062;47.480;8.768;2023-04-25T14:31:39;15.40;58.50
38265;DHT22;24062;47.480;8.768;2023-04-25T14:34:07;16.20;57.50
38265;DHT22;24062;47.480;8.768;2023-04-25T14:36:35;16.30;56.60
38265;DHT22;24062;47.480;8.768;2023-04-25T14:39:04;15.80;54.90
38265;DHT22;24062;47.480;8.768;2023-04-25T14:41:31;15.40;54.30
38265;DHT22;24062;47.480;8.768;2023-04-25T14:43:58;15.90;56.30
38265;DHT22;24062;47.480;8.768;2023-04-25T14:46:25;17.00;56.90
38265;DHT22;24062;47.480;8.768;2023-04-25T14:48:52;18.40;57.90
38265;DHT22;24062;47.480;8.768;2023-04-25T14:51:21;23.50;66.60
38265;DHT22;24062;47.480;8.768;2023-04-25T14:53:48;28.60;57.40
38265;DHT22;24062;47.480;8.768;2023-04-25T14:56:17;30.30;53.10
38265;DHT22;24062;47.480;8.768;2023-04-25T14:58:44;28.40;46.00
38265;DHT22;24062;47.480;8.768;2023-04-25T15:01:11;25.40;43.70
38265;DHT22;24062;47.480;8.768;2023-04-25T15:03:38;23.10;44.60
38265;DHT22;24062;47.480;8.768;2023-04-25T15:06:05;21.90;45.90
38265;DHT22;24062;47.480;8.768;2023-04-25T15:08:33;22.40;47.20
38265;DHT22;24062;47.480;8.768;2023-04-25T15:11:00;24.40;45.20
38265;DHT22;24062;47.480;8.768;2023-04-25T15:13:29;26.80;45.70
38265;DHT22;24062;47.480;8.768;2023-04-25T15:15:56;27.80;42.70
38265;DHT22;24062;47.480;8.768;2023-04-25T15:18:23;28.40;40.90
38265;DHT22;24062;47.480;8.768;2023-04-25T15:20:51;27.70;38.60
38265;DHT22;24062;47.480;8.768;2023-04-25T15:23:18;26.50;39.30
38265;DHT22;24062;47.480;8.768;2023-04-25T15:25:45;26.10;40.50
38265;DHT22;24062;47.480;8.768;2023-04-25T15:28:12;28.30;40.60
38265;DHT22;24062;47.480;8.768;2023-04-25T15:30:42;29.60;40.30
38265;DHT22;24062;47.480;8.768;2023-04-25T15:33:10;30.10;38.60
38265;DHT22;24062;47.480;8.768;2023-04-25T15:35:37;29.30;37.10
38265;DHT22;24062;47.480;8.768;2023-04-25T15:38:04;27.20;35.80
38265;DHT22;24062;47.480;8.768;2023-04-25T15:40:31;23.70;35.50
38265;DHT22;24062;47.480;8.768;2023-04-25T15:42:58;21.00;37.10
38265;DHT22;24062;47.480;8.768;2023-04-25T15:45:25;18.90;38.70